Smyrna Airport
KMQY : rendu visible

Aérodrome :











RETROUVEZ-NOUS SUR...

 
LOGIN :

S'inscrire | Disclaimer

   EN    FR    IT 

 









Légende :    VFR   VFR Marginal   IFR   IFR Intensif   IFR Très Intensif
Visi : 
Plafond : 
>= 8 km
>= 3000ft
5 à 8 km
1000 à 3000 ft
1500m à 5 km
500 à 1000 ft
800 à 1500m
200 à 500 ft
< 800m
< 200 ft
Symboles :   Orages  Brouillard  Fortes neiges  Fortes précipitations  Vent > 20 kt






- Altitude de l'aérodrome : 543 ft


KMQY - Smyrna

DERNIER METAR :
  • 201856Z 04003KT 10SM CLR 14/03 A3023 RMK AO2 SLP246 T01440033

METARs EXPIRÉS :
  • 201756Z 02003KT 10SM CLR 13/04 A3025 RMK AO2 SLP252 T01330039 10133 21017 58007
  • 201656Z 00000KT 10SM CLR 11/04 A3026 RMK AO2 SLP257 T01110039

TAF KMQY
Valide du 20 à 18h jusqu'au 21 à 18h UTC


201721Z 2018/2118 14003KT P6SM SKC
FM211400 19012KT P6SM BKN250



MET'MAP, la Météo Aéronautique d'un coup d'oeil ! - Copyright ORBIFLY Décembre 2007 - Disclaimer

ORBIFLY MET'MAP TEAM :

Programmation & Développement : Alexandra Zaïnal
Conception & Développement : Baudouin d'Aumeries
Co-Programmation & Développement : Marc-Olivier Méhu
Soutien technique & logistique : Manuel Goepfert

Contact : metmap@orbifly.com




SOURCES & CREDITS :

   NOAA       Earth
Advisory